Time;durP1;ratioP1;P1;durP2;ratioP2;P2;SDS_P1;SDS_P2;PMS_P1;PMS_P2;Temp;Humidity;BMP_temperature;BMP_pressure;BME280_temperature;BME280_humidity;BME280_pressure;Samples;Min_cycle;Max_cycle;Signal;HPM_P1;HPM_P2
2023/12/22 00:00:08;;;;;;;4.93;0.83;;;4.90;99.90;;;;;;5081131;28;20225;-48
2023/12/22 00:02:42;;;;;;;4.77;0.80;;;5.00;99.90;;;;;;5080055;28;20195;-48
2023/12/22 00:05:08;;;;;;;4.57;0.83;;;4.90;99.90;;;;;;5081140;28;20206;-47
2023/12/22 00:07:34;;;;;;;4.57;1.37;;;4.90;99.90;;;;;;5081792;28;20257;-48
2023/12/22 00:10:00;;;;;;;5.17;1.07;;;4.90;99.90;;;;;;5080565;28;20207;-49
2023/12/22 00:12:28;;;;;;;3.87;0.90;;;4.90;99.90;;;;;;5059792;28;20216;-51
2023/12/22 00:14:54;;;;;;;3.57;0.80;;;4.90;99.90;;;;;;5077290;28;20179;-49
2023/12/22 00:17:21;;;;;;;3.83;0.77;;;4.90;99.90;;;;;;5060891;28;20575;-49
2023/12/22 00:19:47;;;;;;;6.47;1.03;;;4.90;99.90;;;;;;5079206;28;20203;-48
2023/12/22 00:22:12;;;;;;;5.47;1.00;;;4.90;99.90;;;;;;5079663;28;20263;-49
2023/12/22 00:24:41;;;;;;;3.50;0.90;;;4.90;99.90;;;;;;5081728;28;20641;-48
2023/12/22 00:27:07;;;;;;;4.00;1.00;;;4.90;99.90;;;;;;5084831;28;20668;-47
2023/12/22 00:29:37;;;;;;;9.53;1.67;;;5.00;99.90;;;;;;5079444;28;20206;-47
2023/12/22 00:32:03;;;;;;;9.13;1.20;;;5.00;99.90;;;;;;5079089;28;20670;-47
2023/12/22 00:34:31;;;;;;;4.20;1.13;;;5.00;99.90;;;;;;5079317;28;20204;-48
2023/12/22 00:36:57;;;;;;;7.83;1.23;;;5.00;99.90;;;;;;5078583;28;20217;-49
2023/12/22 00:39:26;;;;;;;5.37;1.53;;;5.00;99.90;;;;;;5079075;28;20747;-48
2023/12/22 00:41:54;;;;;;;6.10;1.40;;;5.00;99.90;;;;;;5078888;28;20190;-47
2023/12/22 00:44:28;;;;;;;5.23;1.40;;;5.00;99.90;;;;;;5061012;28;20225;-49
2023/12/22 00:46:55;;;;;;;4.40;1.20;;;5.00;99.90;;;;;;5077286;28;20224;-47
2023/12/22 00:49:21;;;;;;;15.03;2.47;;;5.00;99.90;;;;;;5079203;28;20202;-47
2023/12/22 00:51:47;;;;;;;5.63;1.07;;;5.00;99.90;;;;;;5079176;28;20178;-48
2023/12/22 00:54:13;;;;;;;4.40;1.20;;;5.00;99.90;;;;;;5078968;28;20193;-47
2023/12/22 00:56:41;;;;;;;9.70;1.57;;;5.00;99.90;;;;;;5079130;28;20526;-48
2023/12/22 00:59:07;;;;;;;6.23;1.77;;;5.00;99.90;;;;;;5077386;28;20174;-48
2023/12/22 01:01:33;;;;;;;7.27;1.80;;;5.00;99.90;;;;;;5058151;28;20565;-48
2023/12/22 01:04:02;;;;;;;6.43;1.40;;;5.10;99.90;;;;;;5077775;28;20168;-50
2023/12/22 01:06:28;;;;;;;9.53;1.93;;;5.20;99.90;;;;;;5077959;28;20176;-48
2023/12/22 01:08:54;;;;;;;6.37;1.60;;;5.30;99.90;;;;;;5078352;28;20564;-48
2023/12/22 01:11:26;;;;;;;13.67;2.23;;;5.40;99.90;;;;;;5061788;28;20258;-47
2023/12/22 01:14:00;;;;;;;6.50;1.97;;;5.40;99.90;;;;;;5056670;28;20248;-46
2023/12/22 01:16:29;;;;;;;9.37;1.90;;;5.40;99.90;;;;;;5057415;28;20567;-48
2023/12/22 01:18:55;;;;;;;10.43;1.87;;;5.40;99.90;;;;;;5057176;28;20232;-49
2023/12/22 01:21:20;;;;;;;7.13;1.67;;;5.40;99.90;;;;;;5056912;28;20640;-48
2023/12/22 01:23:49;;;;;;;7.07;1.80;;;5.40;99.90;;;;;;5075335;28;20182;-48
2023/12/22 01:26:16;;;;;;;12.47;1.83;;;5.40;99.90;;;;;;5057319;28;20187;-49
2023/12/22 01:28:45;;;;;;;7.00;1.63;;;5.40;99.90;;;;;;5074837;28;20238;-47
2023/12/22 01:31:12;;;;;;;7.60;2.00;;;5.40;99.90;;;;;;5074911;28;20225;-47
2023/12/22 01:33:39;;;;;;;8.60;1.90;;;5.40;99.90;;;;;;5073493;28;20274;-46
2023/12/22 01:36:05;;;;;;;14.73;2.17;;;5.50;99.90;;;;;;5074373;28;20179;-47
2023/12/22 01:38:34;;;;;;;11.87;2.30;;;5.50;99.90;;;;;;5074577;28;20651;-48
2023/12/22 01:41:00;;;;;;;8.47;1.70;;;5.50;99.90;;;;;;5056843;28;20213;-47
2023/12/22 01:43:26;;;;;;;11.67;2.50;;;5.60;99.90;;;;;;5056634;28;20706;-47
2023/12/22 01:45:56;;;;;;;12.03;2.33;;;5.60;99.90;;;;;;5056727;28;20266;-48
2023/12/22 01:48:27;;;;;;;8.07;1.57;;;5.50;99.90;;;;;;5056812;28;20226;-47
2023/12/22 01:51:02;;;;;;;7.50;2.00;;;5.50;99.90;;;;;;5056437;28;20284;-47
2023/12/22 01:53:32;;;;;;;14.67;2.47;;;5.50;99.90;;;;;;5074594;28;20517;-47
2023/12/22 01:56:03;;;;;;;15.93;2.40;;;5.50;99.90;;;;;;5074579;28;20276;-48
2023/12/22 01:58:37;;;;;;;10.60;2.50;;;5.50;99.90;;;;;;5074115;28;20278;-48
2023/12/22 02:01:04;;;;;;;7.50;1.23;;;5.60;99.90;;;;;;5059267;28;20215;-48
2023/12/22 02:03:33;;;;;;;7.47;1.90;;;5.60;99.90;;;;;;5074969;28;20190;-49
2023/12/22 02:05:59;;;;;;;11.80;2.10;;;5.70;99.90;;;;;;5074393;28;20192;-43
2023/12/22 02:08:27;;;;;;;10.10;2.13;;;5.70;99.90;;;;;;5074131;28;20201;-43
2023/12/22 02:10:56;;;;;;;6.60;1.50;;;5.80;99.90;;;;;;5073947;28;20198;-42
2023/12/22 02:13:22;;;;;;;10.33;2.33;;;5.90;99.90;;;;;;5074340;28;20203;-44
2023/12/22 02:16:01;;;;;;;11.43;2.10;;;5.90;99.90;;;;;;5073858;28;20177;-43
2023/12/22 02:18:37;;;;;;;12.07;2.30;;;5.90;99.90;;;;;;5072359;28;20237;-42
2023/12/22 02:21:03;;;;;;;12.03;2.53;;;5.90;99.90;;;;;;5070400;28;20306;-42
2023/12/22 02:23:29;;;;;;;12.47;2.50;;;6.00;99.90;;;;;;5073940;28;20605;-42
2023/12/22 02:26:07;;;;;;;12.50;2.30;;;6.00;99.90;;;;;;5073292;28;20185;-44
2023/12/22 02:28:46;;;;;;;11.17;2.00;;;6.00;99.90;;;;;;5068943;28;20220;-43
2023/12/22 02:31:22;;;;;;;15.20;3.07;;;6.00;99.90;;;;;;5056257;28;20225;-44
2023/12/22 02:33:52;;;;;;;16.13;3.40;;;6.00;99.90;;;;;;5074294;28;20163;-45
2023/12/22 02:36:20;;;;;;;8.10;2.00;;;6.10;99.90;;;;;;5074011;28;20580;-43
2023/12/22 02:38:48;;;;;;;9.13;1.80;;;6.10;99.90;;;;;;5073573;28;20182;-42
2023/12/22 02:41:15;;;;;;;14.03;2.40;;;6.20;99.90;;;;;;5055914;28;20204;-42
2023/12/22 02:43:41;;;;;;;20.13;2.90;;;6.20;99.90;;;;;;5068458;28;20219;-44
2023/12/22 02:46:14;;;;;;;9.20;2.07;;;6.20;99.90;;;;;;5073464;28;20659;-41
2023/12/22 02:48:43;;;;;;;13.83;2.43;;;6.20;99.90;;;;;;5073781;28;20209;-41
2023/12/22 02:51:09;;;;;;;21.47;2.97;;;6.30;99.90;;;;;;5073671;28;20194;-42
2023/12/22 02:53:34;;;;;;;18.87;2.90;;;6.40;99.90;;;;;;5073515;28;20179;-42
2023/12/22 02:56:00;;;;;;;16.90;2.67;;;6.40;99.90;;;;;;5055505;28;20217;-43
2023/12/22 02:58:26;;;;;;;9.37;1.97;;;6.40;99.90;;;;;;5055692;28;20186;-44
2023/12/22 03:00:54;;;;;;;11.13;1.97;;;6.40;99.90;;;;;;5055308;28;20229;-41
2023/12/22 03:03:24;;;;;;;10.50;2.60;;;6.50;99.90;;;;;;5073286;28;20181;-44
2023/12/22 03:05:57;;;;;;;11.93;2.83;;;6.50;99.90;;;;;;5055281;28;20225;-42
2023/12/22 03:08:29;;;;;;;23.33;2.60;;;6.60;99.90;;;;;;5073339;28;20206;-43
2023/12/22 03:14:18;;;;;;;17.63;2.97;;;6.60;99.90;;;;;;5073209;28;20157;-42
2023/12/22 03:16:44;;;;;;;14.90;2.43;;;6.60;99.90;;;;;;5055698;28;20578;-42
2023/12/22 03:19:15;;;;;;;4.17;1.13;;;6.60;99.90;;;;;;5073599;28;20192;-42
2023/12/22 03:21:41;;;;;;;15.23;2.60;;;6.70;99.90;;;;;;5073337;28;20175;-44
2023/12/22 03:24:10;;;;;;;13.57;2.20;;;6.70;99.90;;;;;;5072952;28;20266;-44
2023/12/22 03:26:40;;;;;;;13.73;2.30;;;6.70;99.90;;;;;;5072873;28;20174;-45
2023/12/22 03:29:07;;;;;;;17.33;3.00;;;6.80;99.90;;;;;;5054489;28;20189;-43
2023/12/22 03:31:32;;;;;;;6.07;1.77;;;6.80;99.90;;;;;;5073146;28;20258;-44
2023/12/22 03:33:58;;;;;;;3.97;1.00;;;6.80;99.90;;;;;;5054595;28;20229;-43
2023/12/22 03:36:25;;;;;;;5.67;1.17;;;6.70;99.90;;;;;;5073059;28;20189;-44
2023/12/22 03:38:51;;;;;;;10.47;1.67;;;6.60;99.90;;;;;;5041167;28;20202;-44
2023/12/22 03:41:20;;;;;;;7.73;1.50;;;6.50;99.90;;;;;;5058632;28;20662;-43
2023/12/22 03:47:09;;;;;;;11.03;2.40;;;6.30;99.90;;;;;;5076718;28;20250;-44
2023/12/22 03:49:43;;;;;;;14.37;2.33;;;6.30;99.90;;;;;;5059056;28;20210;-45
2023/12/22 03:52:10;;;;;;;13.40;2.17;;;6.20;99.90;;;;;;5076739;28;20692;-43
2023/12/22 03:54:36;;;;;;;14.07;2.10;;;6.20;99.90;;;;;;5076706;28;20587;-43
2023/12/22 03:57:01;;;;;;;6.10;1.60;;;6.10;99.90;;;;;;5076724;28;20248;-44
2023/12/22 04:02:48;;;;;;;12.10;2.23;;;6.10;99.90;;;;;;5076560;28;20213;-43
2023/12/22 04:05:17;;;;;;;13.60;2.53;;;6.00;99.90;;;;;;5076501;28;20177;-44
2023/12/22 04:07:43;;;;;;;12.70;2.20;;;6.00;99.90;;;;;;5076587;28;20670;-43
2023/12/22 04:10:09;;;;;;;8.23;1.30;;;6.00;99.90;;;;;;5058627;28;20285;-43
2023/12/22 04:12:35;;;;;;;10.93;2.30;;;6.00;99.90;;;;;;5076541;28;20193;-43
2023/12/22 04:15:00;;;;;;;10.47;2.37;;;6.00;99.90;;;;;;5058694;28;20175;-43
2023/12/22 04:17:26;;;;;;;10.37;1.70;;;6.00;99.90;;;;;;5076861;28;20202;-43
2023/12/22 04:19:52;;;;;;;6.90;1.77;;;6.00;99.90;;;;;;5077234;28;20206;-43
2023/12/22 04:22:23;;;;;;;10.73;1.83;;;6.00;99.90;;;;;;5059485;28;20214;-44
2023/12/22 04:24:51;;;;;;;11.40;2.30;;;6.10;99.90;;;;;;5077153;28;20171;-44
2023/12/22 04:27:21;;;;;;;11.43;2.23;;;6.10;99.90;;;;;;5075639;28;20206;-43
2023/12/22 04:29:47;;;;;;;5.93;1.50;;;6.30;99.90;;;;;;5075923;28;20619;-42
2023/12/22 04:32:13;;;;;;;10.73;2.33;;;6.40;99.90;;;;;;5057878;28;20219;-42
2023/12/22 04:34:39;;;;;;;7.13;1.60;;;6.40;99.90;;;;;;5075953;28;20269;-43
2023/12/22 04:37:04;;;;;;;13.50;2.47;;;6.50;99.90;;;;;;5057922;28;20198;-45
2023/12/22 04:39:33;;;;;;;17.77;2.53;;;6.50;99.90;;;;;;5075452;28;20699;-41
2023/12/22 04:45:05;;;;;;;10.97;2.10;;;6.50;99.90;;;;;;5075483;28;20228;-44
2023/12/22 04:47:31;;;;;;;9.87;1.97;;;6.60;99.90;;;;;;5075705;28;20686;-41
2023/12/22 04:49:56;;;;;;;11.87;2.03;;;6.70;99.90;;;;;;5074834;28;20205;-43
2023/12/22 04:52:28;;;;;;;13.37;2.27;;;6.70;99.90;;;;;;5075265;28;20595;-43
2023/12/22 04:54:54;;;;;;;13.73;2.80;;;6.70;99.90;;;;;;5075758;28;20194;-43
2023/12/22 04:57:21;;;;;;;17.03;3.10;;;6.80;99.90;;;;;;5075730;28;20214;-42
2023/12/22 04:59:47;;;;;;;15.30;2.70;;;6.90;99.90;;;;;;5075536;28;20705;-43
2023/12/22 05:02:13;;;;;;;10.03;2.00;;;6.90;99.90;;;;;;5075449;28;20186;-41
2023/12/22 05:04:40;;;;;;;14.30;2.83;;;7.00;99.90;;;;;;5075001;28;20195;-43
2023/12/22 05:07:06;;;;;;;16.57;2.17;;;7.00;99.90;;;;;;5075059;28;20255;-44
2023/12/22 05:09:36;;;;;;;13.30;2.47;;;7.00;99.90;;;;;;5075372;28;20198;-43
2023/12/22 05:15:28;;;;;;;20.50;3.00;;;7.10;99.90;;;;;;5074930;28;20205;-42
2023/12/22 05:17:54;;;;;;;11.43;2.67;;;7.20;99.90;;;;;;5074884;28;20187;-44
2023/12/22 05:20:22;;;;;;;12.30;2.60;;;7.20;99.90;;;;;;5057060;28;20263;-43
2023/12/22 05:22:58;;;;;;;13.07;2.07;;;7.30;99.90;;;;;;5074964;28;20511;-43
2023/12/22 05:25:28;;;;;;;13.07;2.70;;;7.40;99.90;;;;;;5073789;28;20239;-41
2023/12/22 05:27:54;;;;;;;20.03;2.50;;;7.40;99.90;;;;;;5074398;28;20281;-43
2023/12/22 05:30:21;;;;;;;15.13;2.77;;;7.50;99.90;;;;;;5074602;28;20219;-42
2023/12/22 05:32:47;;;;;;;13.03;2.70;;;7.50;99.90;;;;;;5074561;28;20171;-42
2023/12/22 05:35:12;;;;;;;13.67;3.23;;;7.50;99.90;;;;;;5057070;28;20188;-45
2023/12/22 05:37:38;;;;;;;6.10;1.33;;;7.50;99.90;;;;;;5074391;28;20640;-42
2023/12/22 05:40:09;;;;;;;10.53;1.90;;;7.50;99.90;;;;;;5056409;28;20299;-41
2023/12/22 05:42:35;;;;;;;12.33;2.50;;;7.50;99.90;;;;;;5074622;28;20183;-43
2023/12/22 05:45:04;;;;;;;15.00;3.13;;;7.60;99.90;;;;;;5056736;28;20647;-43
2023/12/22 05:47:39;;;;;;;4.17;1.37;;;7.60;99.90;;;;;;5056510;28;20541;-45
2023/12/22 05:50:06;;;;;;;10.70;2.37;;;7.50;99.90;;;;;;5074156;28;20273;-45
2023/12/22 05:52:39;;;;;;;11.07;2.23;;;7.50;99.90;;;;;;5056330;28;20395;-41
2023/12/22 05:55:05;;;;;;;12.30;2.33;;;7.50;99.90;;;;;;5057070;28;20163;-43
2023/12/22 05:57:31;;;;;;;13.83;2.60;;;7.60;99.90;;;;;;5074488;28;20651;-44
2023/12/22 06:00:11;;;;;;;12.80;2.57;;;7.60;99.90;;;;;;5074103;28;20206;-43
2023/12/22 06:02:41;;;;;;;15.10;2.73;;;7.60;99.90;;;;;;5067618;28;20671;-43
2023/12/22 06:05:14;;;;;;;17.50;2.83;;;7.60;99.90;;;;;;5074196;28;20203;-43
2023/12/22 06:07:40;;;;;;;13.33;2.57;;;7.50;99.90;;;;;;5074059;28;20192;-43
2023/12/22 06:10:09;;;;;;;13.23;2.83;;;7.50;99.90;;;;;;5073827;28;20214;-44
2023/12/22 06:12:36;;;;;;;7.17;1.60;;;7.50;99.90;;;;;;5073811;28;20697;-44
2023/12/22 06:15:02;;;;;;;9.90;1.70;;;7.50;99.90;;;;;;5073643;28;20187;-45
2023/12/22 06:17:55;;;;;;;6.33;1.73;;;7.50;99.90;;;;;;5073938;28;20186;-43
2023/12/22 06:20:21;;;;;;;7.80;2.00;;;7.50;99.90;;;;;;5074686;28;20203;-44
2023/12/22 06:22:49;;;;;;;12.33;2.70;;;7.50;99.90;;;;;;5075511;28;20243;-43
2023/12/22 06:25:17;;;;;;;8.00;2.10;;;7.50;99.90;;;;;;5075067;28;20192;-47
2023/12/22 06:27:46;;;;;;;10.37;2.40;;;7.50;99.90;;;;;;5073867;28;20250;-42
2023/12/22 06:30:12;;;;;;;11.30;2.33;;;7.50;99.90;;;;;;5074008;28;20202;-43
2023/12/22 06:32:40;;;;;;;10.20;1.83;;;7.40;99.90;;;;;;5055805;28;20214;-45
2023/12/22 06:35:09;;;;;;;6.70;1.23;;;7.40;99.90;;;;;;5073696;28;20172;-41
2023/12/22 06:37:35;;;;;;;9.03;2.33;;;7.40;99.90;;;;;;5056000;28;20204;-42
2023/12/22 06:40:01;;;;;;;12.70;2.43;;;7.40;99.90;;;;;;5055968;28;20211;-43
2023/12/22 06:42:35;;;;;;;11.70;2.60;;;7.40;99.90;;;;;;5074087;28;20197;-42
2023/12/22 06:45:01;;;;;;;12.60;2.53;;;7.40;99.90;;;;;;5056958;28;20190;-42
2023/12/22 06:47:27;;;;;;;14.90;3.43;;;7.30;99.90;;;;;;5074693;28;20192;-44
2023/12/22 06:49:53;;;;;;;8.70;2.07;;;7.30;99.90;;;;;;5055929;28;20207;-42
2023/12/22 06:52:23;;;;;;;28.67;3.53;;;7.40;99.90;;;;;;5073272;28;20180;-43
2023/12/22 06:54:52;;;;;;;18.50;3.33;;;7.40;99.90;;;;;;5073177;28;20642;-43
2023/12/22 06:57:29;;;;;;;14.07;2.70;;;7.40;99.90;;;;;;5073549;28;20199;-41
2023/12/22 06:59:55;;;;;;;19.07;2.97;;;7.40;99.90;;;;;;5054482;28;20215;-43
2023/12/22 07:02:22;;;;;;;16.50;3.47;;;7.40;99.90;;;;;;5073536;28;20590;-44
2023/12/22 07:05:29;;;;;;;19.33;3.70;;;7.40;99.90;;;;;;5073036;28;20191;-44
2023/12/22 07:07:57;;;;;;;23.73;4.30;;;7.40;99.90;;;;;;5073399;28;20651;-42
2023/12/22 07:10:23;;;;;;;18.37;3.17;;;7.40;99.90;;;;;;5073405;28;20601;-42
2023/12/22 07:12:55;;;;;;;17.93;3.23;;;7.40;99.90;;;;;;5075196;28;20753;-47
2023/12/22 07:15:22;;;;;;;16.73;3.10;;;7.50;99.90;;;;;;5077085;28;20175;-47
2023/12/22 07:17:51;;;;;;;21.60;4.63;;;7.50;99.90;;;;;;5076623;28;20188;-47
2023/12/22 07:20:18;;;;;;;23.60;3.47;;;7.50;99.90;;;;;;5077168;28;20276;-48
2023/12/22 07:22:46;;;;;;;27.33;3.80;;;7.50;99.90;;;;;;5077248;28;20546;-48
2023/12/22 07:25:24;;;;;;;18.77;3.30;;;7.50;99.90;;;;;;5059233;28;20194;-47
2023/12/22 07:27:51;;;;;;;17.33;4.80;;;7.50;99.90;;;;;;5078490;28;20195;-47
2023/12/22 07:30:17;;;;;;;10.17;2.33;;;7.50;99.90;;;;;;5063197;28;20294;-47
2023/12/22 07:32:52;;;;;;;23.30;4.80;;;7.50;99.90;;;;;;5081539;28;20265;-46
2023/12/22 07:35:19;;;;;;;14.10;3.57;;;7.50;99.90;;;;;;5063255;28;20279;-48
2023/12/22 07:41:08;;;;;;;15.63;3.47;;;7.60;99.90;;;;;;5076695;28;20229;-46
2023/12/22 07:43:34;;;;;;;25.43;5.23;;;7.50;99.90;;;;;;5076649;28;20187;-46
2023/12/22 07:46:00;;;;;;;20.20;3.10;;;7.50;99.90;;;;;;5059111;28;20183;-47
2023/12/22 07:48:26;;;;;;;28.37;4.70;;;7.60;99.90;;;;;;5058749;28;20211;-47
2023/12/22 07:50:52;;;;;;;24.50;3.87;;;7.60;99.90;;;;;;5058632;28;20683;-48
2023/12/22 07:53:23;;;;;;;23.03;4.00;;;7.60;99.90;;;;;;5076751;28;20254;-48
2023/12/22 07:55:49;;;;;;;34.40;5.17;;;7.60;99.90;;;;;;5076397;28;20176;-45
2023/12/22 07:58:15;;;;;;;31.17;5.90;;;7.60;99.90;;;;;;5058763;28;20187;-47
2023/12/22 08:00:41;;;;;;;14.60;2.93;;;7.60;99.90;;;;;;5076552;28;20204;-48
2023/12/22 08:03:09;;;;;;;10.80;2.40;;;7.70;99.90;;;;;;5076340;28;20655;-49
2023/12/22 08:05:38;;;;;;;23.53;4.83;;;7.70;99.90;;;;;;5076309;28;20176;-47
2023/12/22 08:08:07;;;;;;;13.67;3.17;;;7.70;99.90;;;;;;5076233;28;20200;-48
2023/12/22 08:10:34;;;;;;;18.17;3.73;;;7.70;99.90;;;;;;5076256;28;20249;-46
2023/12/22 08:13:01;;;;;;;16.93;4.13;;;7.70;99.90;;;;;;5076105;28;20199;-47
2023/12/22 08:15:26;;;;;;;15.17;3.40;;;7.60;99.90;;;;;;5075955;28;20263;-47
2023/12/22 08:17:52;;;;;;;17.40;3.60;;;7.70;99.90;;;;;;5076536;28;20211;-47
2023/12/22 08:20:22;;;;;;;16.67;3.37;;;7.80;99.90;;;;;;5058219;28;20257;-47
2023/12/22 08:22:59;;;;;;;24.47;4.23;;;7.80;99.90;;;;;;5058559;28;20187;-47
2023/12/22 08:28:46;;;;;;;18.83;4.53;;;7.80;99.90;;;;;;5075725;28;20238;-47
2023/12/22 08:31:12;;;;;;;21.43;3.63;;;7.80;99.90;;;;;;5075951;28;20679;-47
2023/12/22 08:33:43;;;;;;;18.97;3.87;;;7.80;99.90;;;;;;5075903;28;20187;-47
2023/12/22 08:36:09;;;;;;;11.57;3.27;;;7.80;99.90;;;;;;5075957;28;20246;-48
2023/12/22 08:38:40;;;;;;;11.70;2.40;;;7.80;99.90;;;;;;5075693;28;20214;-47
2023/12/22 08:41:10;;;;;;;12.33;2.23;;;7.80;99.90;;;;;;5074452;28;20257;-47
2023/12/22 08:43:48;;;;;;;21.87;3.80;;;7.80;99.90;;;;;;5075622;28;20172;-47
2023/12/22 08:46:18;;;;;;;11.70;3.07;;;7.80;99.90;;;;;;5075464;28;20179;-47
2023/12/22 08:48:44;;;;;;;13.53;2.40;;;7.80;99.90;;;;;;5075585;28;20282;-46
2023/12/22 08:51:10;;;;;;;16.77;3.70;;;7.80;99.90;;;;;;5075393;28;20671;-45
2023/12/22 08:53:39;;;;;;;17.57;3.27;;;7.90;99.90;;;;;;5075747;28;20163;-47
2023/12/22 08:56:08;;;;;;;18.47;4.00;;;7.90;99.90;;;;;;5074497;28;20198;-46
2023/12/22 08:58:35;;;;;;;12.53;2.97;;;7.90;99.90;;;;;;5075614;28;20179;-48
2023/12/22 09:01:01;;;;;;;14.37;2.97;;;7.90;99.90;;;;;;5057290;28;20230;-47
2023/12/22 09:03:28;;;;;;;12.60;2.77;;;7.90;99.90;;;;;;5057635;28;20223;-48
2023/12/22 09:05:53;;;;;;;10.17;2.47;;;7.90;99.90;;;;;;5075128;28;20590;-48
2023/12/22 09:08:19;;;;;;;10.97;2.33;;;8.00;99.90;;;;;;5075320;28;20211;-47
2023/12/22 09:10:45;;;;;;;14.10;3.13;;;8.00;99.90;;;;;;5057560;28;20219;-48
2023/12/22 09:13:12;;;;;;;12.47;2.80;;;8.00;99.90;;;;;;5075096;28;20256;-47
2023/12/22 09:15:38;;;;;;;15.17;2.30;;;8.00;99.90;;;;;;5075149;28;20580;-47
2023/12/22 09:18:04;;;;;;;11.93;3.03;;;8.00;99.90;;;;;;5075277;28;20191;-43
2023/12/22 09:20:30;;;;;;;7.30;2.20;;;8.10;99.90;;;;;;5075004;28;20202;-44
2023/12/22 09:23:07;;;;;;;16.57;3.47;;;8.10;99.90;;;;;;5075100;28;20536;-44
2023/12/22 09:25:33;;;;;;;16.43;2.83;;;8.10;99.90;;;;;;5075026;28;20171;-43
2023/12/22 09:28:06;;;;;;;11.53;2.27;;;8.20;99.90;;;;;;5056676;28;20210;-42
2023/12/22 09:30:32;;;;;;;14.57;3.30;;;8.20;99.90;;;;;;5056543;28;20219;-43
2023/12/22 09:33:01;;;;;;;7.93;2.07;;;8.20;99.90;;;;;;5057073;28;20715;-44
2023/12/22 09:35:33;;;;;;;15.07;2.77;;;8.20;99.90;;;;;;5074592;28;20175;-43
2023/12/22 09:38:04;;;;;;;16.90;2.57;;;8.30;99.90;;;;;;5074878;28;20663;-44
2023/12/22 09:40:30;;;;;;;8.80;1.90;;;8.30;99.90;;;;;;5075702;28;20206;-43
2023/12/22 09:42:57;;;;;;;10.50;2.10;;;8.30;99.90;;;;;;5040082;28;20280;-43
2023/12/22 09:45:24;;;;;;;7.07;2.27;;;8.30;99.90;;;;;;5056406;28;20245;-44
2023/12/22 09:47:57;;;;;;;8.33;1.80;;;8.30;99.90;;;;;;5040186;28;20298;-44
2023/12/22 09:50:24;;;;;;;5.53;1.90;;;8.40;99.90;;;;;;5057807;28;20559;-44
2023/12/22 09:52:50;;;;;;;5.60;1.80;;;8.30;99.90;;;;;;5074225;28;20678;-45
2023/12/22 09:55:17;;;;;;;4.60;1.33;;;8.40;99.90;;;;;;5056783;28;20180;-43
2023/12/22 09:57:44;;;;;;;5.23;1.60;;;8.40;99.90;;;;;;5072241;28;20223;-44
2023/12/22 10:00:12;;;;;;;12.03;2.90;;;8.40;99.90;;;;;;5057016;28;20212;-45
2023/12/22 10:02:42;;;;;;;5.90;1.63;;;8.30;99.90;;;;;;5055514;28;20225;-43
2023/12/22 10:05:13;;;;;;;9.03;2.53;;;8.30;99.90;;;;;;5073821;28;20279;-44
2023/12/22 10:07:45;;;;;;;9.40;1.90;;;8.30;99.90;;;;;;5056680;28;20301;-43
2023/12/22 10:10:15;;;;;;;8.67;2.23;;;8.30;99.90;;;;;;5074497;28;20206;-44
2023/12/22 10:12:46;;;;;;;5.57;1.70;;;8.30;99.90;;;;;;5056544;28;20648;-42
2023/12/22 10:15:16;;;;;;;5.63;1.80;;;8.30;99.90;;;;;;5074589;28;20156;-43
2023/12/22 10:17:42;;;;;;;5.47;2.30;;;8.40;99.90;;;;;;5073866;28;20175;-45
2023/12/22 10:20:08;;;;;;;7.13;1.47;;;8.30;99.90;;;;;;5073952;28;20258;-45
2023/12/22 10:22:34;;;;;;;10.17;2.00;;;8.40;99.90;;;;;;5055991;28;20191;-44
2023/12/22 10:24:59;;;;;;;4.13;1.73;;;8.40;99.90;;;;;;5073804;28;20179;-44
2023/12/22 10:27:28;;;;;;;2.83;1.47;;;8.40;99.90;;;;;;5074421;28;20210;-44
2023/12/22 10:30:00;;;;;;;7.63;1.37;;;8.40;99.90;;;;;;5074135;28;20194;-44
2023/12/22 10:32:28;;;;;;;6.70;1.77;;;8.40;99.90;;;;;;5073980;28;20218;-43
2023/12/22 10:34:56;;;;;;;4.13;1.50;;;8.40;99.90;;;;;;5073672;28;20203;-44
2023/12/22 10:37:23;;;;;;;3.37;1.27;;;8.50;99.90;;;;;;5073764;28;20187;-43
2023/12/22 10:39:53;;;;;;;3.03;1.40;;;8.40;99.90;;;;;;5073530;28;20696;-45
2023/12/22 10:42:18;;;;;;;2.60;1.80;;;8.50;99.90;;;;;;5073277;28;20199;-43
2023/12/22 10:44:45;;;;;;;5.20;1.77;;;8.50;99.90;;;;;;5073814;28;20183;-45
2023/12/22 10:47:11;;;;;;;3.20;1.50;;;8.50;99.90;;;;;;5055018;28;20661;-44
2023/12/22 10:49:39;;;;;;;3.27;1.43;;;8.60;99.90;;;;;;5056280;28;20215;-43
2023/12/22 10:52:05;;;;;;;6.27;2.07;;;8.60;99.90;;;;;;5074169;28;20222;-44
2023/12/22 10:54:31;;;;;;;3.03;1.50;;;8.70;99.90;;;;;;5074104;28;20167;-44
2023/12/22 10:57:01;;;;;;;5.37;1.60;;;8.70;99.90;;;;;;5073959;28;20642;-45
2023/12/22 10:59:32;;;;;;;4.77;1.87;;;8.70;99.90;;;;;;5056357;28;20193;-45
2023/12/22 11:01:59;;;;;;;3.50;2.30;;;8.80;99.90;;;;;;5075622;28;20158;-45
2023/12/22 11:04:34;;;;;;;1.37;1.27;;;8.80;99.90;;;;;;5074601;28;20646;-46
2023/12/22 11:07:03;;;;;;;4.93;1.73;;;8.90;99.90;;;;;;5073175;28;20193;-44
2023/12/22 11:09:39;;;;;;;7.73;1.93;;;8.90;99.90;;;;;;5073225;28;20217;-44
2023/12/22 11:12:07;;;;;;;2.70;2.00;;;8.90;99.90;;;;;;5073496;28;20167;-46
2023/12/22 11:14:35;;;;;;;4.43;2.10;;;9.00;99.90;;;;;;5055346;28;20185;-42
2023/12/22 11:17:01;;;;;;;3.20;2.27;;;9.00;99.90;;;;;;5072298;28;20193;-42
2023/12/22 11:19:30;;;;;;;4.57;2.07;;;9.00;99.90;;;;;;5073316;28;20534;-44
2023/12/22 11:22:06;;;;;;;7.70;2.43;;;9.00;99.90;;;;;;5055924;28;20673;-43
2023/12/22 11:24:33;;;;;;;7.27;2.13;;;9.00;99.90;;;;;;5074107;28;20161;-42
2023/12/22 11:27:02;;;;;;;3.60;1.73;;;9.10;99.90;;;;;;5073578;28;20174;-44
2023/12/22 11:29:35;;;;;;;4.60;2.23;;;9.10;99.90;;;;;;5038681;28;20692;-44
2023/12/22 11:32:39;;;;;;;4.97;2.50;;;9.20;99.90;;;;;;5073281;28;20167;-44
2023/12/22 11:35:08;;;;;;;4.03;1.90;;;9.20;99.90;;;;;;5072782;28;20224;-43
2023/12/22 11:37:35;;;;;;;3.73;1.80;;;9.20;99.90;;;;;;5072913;28;20198;-45
2023/12/22 11:40:01;;;;;;;4.90;1.60;;;9.30;99.90;;;;;;5073115;28;20208;-43
2023/12/22 11:42:39;;;;;;;4.80;2.00;;;9.30;99.90;;;;;;5073153;28;20185;-43
2023/12/22 11:45:05;;;;;;;3.23;1.40;;;9.30;99.90;;;;;;5072065;28;20273;-42
2023/12/22 11:47:31;;;;;;;2.47;1.50;;;9.40;99.90;;;;;;5072795;28;20233;-44
2023/12/22 11:49:57;;;;;;;7.00;1.57;;;9.50;99.90;;;;;;5072663;28;20219;-43
2023/12/22 11:52:30;;;;;;;2.40;1.10;;;9.50;99.90;;;;;;5072656;28;20563;-42
2023/12/22 11:54:56;;;;;;;5.47;1.53;;;9.50;99.90;;;;;;5055306;28;20185;-42
2023/12/22 11:57:38;;;;;;;5.37;1.83;;;9.50;99.90;;;;;;5055044;28;20188;-45
2023/12/22 12:00:09;;;;;;;2.73;1.30;;;9.60;99.90;;;;;;5075205;28;20566;-44
2023/12/22 12:02:41;;;;;;;3.13;1.20;;;9.60;99.90;;;;;;5075613;28;20191;-45
2023/12/22 12:05:08;;;;;;;3.80;1.23;;;9.60;99.90;;;;;;5058577;28;20656;-42
2023/12/22 12:07:49;;;;;;;6.13;2.30;;;9.60;99.90;;;;;;5058183;28;20294;-44
2023/12/22 12:10:50;;;;;;;1.27;0.87;;;9.60;99.90;;;;;;5058042;28;20216;-41
2023/12/22 12:13:26;;;;;;;2.43;1.30;;;9.70;99.90;;;;;;5058486;28;20656;-45
2023/12/22 12:16:14;;;;;;;2.33;1.43;;;9.70;99.90;;;;;;5075946;28;20194;-44
2023/12/22 12:18:40;;;;;;;9.03;1.73;;;9.70;99.90;;;;;;5076263;28;20176;-43
2023/12/22 12:21:09;;;;;;;6.27;1.40;;;9.70;99.90;;;;;;5075600;28;20199;-43
2023/12/22 12:23:40;;;;;;;8.60;1.37;;;9.70;99.90;;;;;;5075875;28;20188;-43
2023/12/22 12:26:08;;;;;;;3.87;1.47;;;9.70;99.90;;;;;;5058368;28;20183;-43
2023/12/22 12:28:35;;;;;;;2.67;1.33;;;9.70;99.90;;;;;;5075122;28;20578;-42
2023/12/22 12:31:09;;;;;;;3.73;1.93;;;9.70;99.90;;;;;;5058512;28;20203;-45
2023/12/22 12:33:38;;;;;;;4.43;1.53;;;9.80;99.90;;;;;;5058765;28;20186;-46
2023/12/22 12:36:04;;;;;;;9.37;1.83;;;9.80;99.90;;;;;;5058121;28;20195;-47
2023/12/22 12:38:51;;;;;;;5.80;0.97;;;9.70;99.90;;;;;;5075561;28;20175;-43
2023/12/22 12:41:30;;;;;;;5.60;1.70;;;9.70;99.90;;;;;;5075977;28;20204;-43
2023/12/22 12:43:59;;;;;;;2.20;0.80;;;9.70;99.90;;;;;;5076109;28;20250;-42
2023/12/22 12:46:46;;;;;;;3.23;1.20;;;9.60;99.90;;;;;;5058349;28;20632;-43
2023/12/22 12:49:17;;;;;;;4.13;1.27;;;9.50;99.90;;;;;;5075401;28;20246;-43
2023/12/22 12:51:45;;;;;;;5.33;1.80;;;9.50;99.90;;;;;;5058461;28;20631;-43
2023/12/22 12:54:11;;;;;;;6.27;1.63;;;9.50;99.90;;;;;;5074893;28;20709;-45
2023/12/22 12:56:46;;;;;;;2.27;1.10;;;9.50;99.90;;;;;;5075338;28;20676;-42
2023/12/22 12:59:15;;;;;;;5.97;1.77;;;9.50;99.90;;;;;;5075378;28;20256;-43
2023/12/22 13:01:45;;;;;;;7.47;1.83;;;9.50;99.90;;;;;;5057596;28;20187;-42
2023/12/22 13:04:12;;;;;;;5.83;1.70;;;9.50;99.90;;;;;;5075405;28;20160;-43
2023/12/22 13:06:54;;;;;;;5.80;1.77;;;9.50;99.90;;;;;;5051854;28;20217;-43
2023/12/22 13:09:20;;;;;;;7.77;1.50;;;9.50;99.90;;;;;;5075296;28;20211;-44
2023/12/22 13:11:46;;;;;;;3.47;1.43;;;9.50;99.90;;;;;;5052521;28;20532;-45
2023/12/22 13:14:26;;;;;;;6.47;1.37;;;9.50;99.90;;;;;;5075312;28;20194;-43
2023/12/22 13:16:58;;;;;;;3.07;1.43;;;9.60;99.90;;;;;;5057009;28;20274;-43
2023/12/22 13:19:28;;;;;;;5.33;1.80;;;9.60;99.90;;;;;;5075250;28;20325;-46
2023/12/22 13:21:54;;;;;;;5.53;1.60;;;9.70;99.90;;;;;;5074863;28;20301;-44
2023/12/22 13:24:21;;;;;;;6.30;1.90;;;9.70;99.90;;;;;;5075115;28;20539;-43